createdAt,value
2017-12-05T00:02:39.764Z,7.90
2017-12-05T00:17:35.247Z,8.77
2017-12-05T00:32:34.132Z,8.77
2017-12-05T00:47:34.612Z,12.73
2017-12-05T01:02:34.260Z,11.57
2017-12-05T01:17:34.436Z,13.37
2017-12-05T01:32:34.336Z,11.40
2017-12-05T01:47:34.312Z,6.80
2017-12-05T02:02:34.000Z,6.50
2017-12-05T02:17:34.412Z,8.33
2017-12-05T02:32:34.544Z,4.33
2017-12-05T02:47:34.584Z,7.03
2017-12-05T03:02:34.503Z,5.60
2017-12-05T03:17:34.420Z,7.20
2017-12-05T03:32:38.986Z,3.73
2017-12-05T03:47:34.634Z,4.33
2017-12-05T04:02:34.123Z,6.80
2017-12-05T04:17:36.514Z,6.87
2017-12-05T04:32:36.964Z,5.53
2017-12-05T04:47:34.431Z,8.60
2017-12-05T05:02:32.642Z,7.20
2017-12-05T05:17:34.457Z,7.90
2017-12-05T05:32:30.155Z,4.77
2017-12-05T05:47:29.296Z,8.27
2017-12-05T06:02:30.747Z,10.20
2017-12-05T06:17:26.567Z,12.53
2017-12-05T06:32:26.203Z,9.57
2017-12-05T06:47:26.779Z,8.30
2017-12-05T07:17:22.583Z,8.50
2017-12-05T07:32:23.634Z,6.70
2017-12-05T07:47:20.650Z,7.00
2017-12-05T08:02:17.457Z,7.57
2017-12-05T08:17:21.258Z,7.87
2017-12-05T08:32:15.112Z,14.63
2017-12-05T08:47:16.109Z,12.13
2017-12-05T09:02:14.651Z,7.63
2017-12-05T09:17:12.119Z,5.90
2017-12-05T09:32:09.235Z,6.20
2017-12-05T09:47:12.031Z,8.37
2017-12-05T10:02:08.552Z,8.67
2017-12-05T10:17:07.428Z,7.90
2017-12-05T10:32:08.671Z,8.60
2017-12-05T10:47:06.309Z,8.77
2017-12-05T11:02:08.236Z,9.80
2017-12-05T11:17:04.752Z,8.33
2017-12-05T11:32:07.823Z,9.63
2017-12-05T11:47:02.238Z,7.03
2017-12-05T12:02:01.730Z,7.70
2017-12-05T12:16:59.016Z,9.20
2017-12-05T12:31:56.490Z,10.70
2017-12-05T12:46:58.296Z,10.07
2017-12-05T13:01:56.155Z,10.13
2017-12-05T13:16:54.896Z,12.60
2017-12-05T13:32:35.199Z,10.40
2017-12-05T13:47:36.129Z,13.33
2017-12-05T14:02:35.088Z,14.07
2017-12-05T14:17:38.493Z,10.87
2017-12-05T14:32:37.348Z,12.67
2017-12-05T14:47:35.785Z,15.80
2017-12-05T15:02:36.488Z,14.30
2017-12-05T15:17:34.148Z,16.97
2017-12-05T15:32:34.589Z,10.77
2017-12-05T15:47:36.454Z,11.20
2017-12-05T16:02:34.319Z,15.53
2017-12-05T17:02:34.492Z,18.70
2017-12-05T17:17:36.561Z,17.90
2017-12-05T17:32:34.501Z,22.60
2017-12-05T17:47:39.041Z,19.03
2017-12-05T18:02:38.541Z,17.80
2017-12-05T18:17:34.741Z,15.50
2017-12-05T18:32:34.670Z,22.07
2017-12-05T19:32:49.405Z,16.23
2017-12-05T20:02:42.200Z,12.00
2017-12-05T20:17:37.845Z,11.60
2017-12-05T20:32:43.652Z,8.90
2017-12-05T20:47:36.664Z,14.20
2017-12-05T21:02:36.625Z,13.97
2017-12-05T21:17:36.461Z,16.30
2017-12-05T21:32:38.092Z,13.27
2017-12-05T21:47:37.991Z,15.90
2017-12-05T22:02:38.213Z,15.93
2017-12-05T22:17:34.608Z,8.67
2017-12-05T22:32:35.038Z,11.03
2017-12-05T22:47:34.930Z,9.73
2017-12-05T23:02:34.880Z,9.57
2017-12-05T23:17:37.889Z,8.77
2017-12-05T23:32:35.181Z,7.17
2017-12-05T23:47:35.188Z,8.07
